« Back
NWS Peachtree City, Ga » Text Product » CSG Terminal Aerodrome Forecast


Printer-friendly Version
Current Version              Previous Versions:   1  2  3  4  5  6  7  8  9  

Terminal Aerodrome Forecast

209
FTUS42 KFFC 190500
TAFCSG
TAF
KCSG 190520Z 1906/2006 03011G21KT 6SM -RA BKN015
     FM190800 03014G24KT 6SM -RA OVC012
     FM191200 03014G24KT 6SM BR BKN015
     FM191900 04012G21KT P6SM BKN024=



USA.gov is the U.S. government's official web portal to all federal, state and local government web resources and services.